Terminal Aerodrome Forecast
Issued by NWS

Home | Current Version | Previous Version | Text Only | Print | Product List | Glossary On
Versions: 1 2 3 4 5 6 7 8 9 10 11 12 13 14 15 16 17 18 19 20 21
355
FTAK31 PAJN 120327 AAA
TAFAYA
TAF AMD
PAYA 120327Z 1203/1224 05004KT P6SM SCT050 OVC200
     FM121200 08003KT P6SM VCSH OVC050
     FM121500 10005KT 5SM -RA BR BKN025 OVC050
      AMD LTD TO CLD VIS AND WIND=

USA.gov is the U.S. government's official web portal to all federal, state and local government web resources and services.